Portada
METAR-TAF:

METAR-TAF

Aeroports :

Odessa, Ucraïna

latitud: 46-26N, longitud: 030-46E, altitud: 42 m

Observació

L'informe es va fer fa 25 minuts, a les 17:00 UTC
Vent calma
Temperatura 17°C
Humitat 55%
Pressió 1020 hPa
Visibilitat 10 km o més
sense núvols per sota de 1500 mi sense presència de cumulonimbus.

METAR: UKOO 201700Z 00000MPS CAVOK 17/08 Q1020 R16/090060 NOSIG

Hora: 20:25 (17:25 UTC)

Pronòstic

L'informe es va fer fa 6 hores i 22 minuts, a les 11:03 UTC
Pronòstic vàlid del 20 a les 12 UTC al 21 a les 12 UTC
Vent 6 kt del Est/Nord-Est
Visibilitat 10 km o més
sense núvols per sota de 1500 mi sense presència de cumulonimbus.
Temporalment
l' 20 a les 20 UTC al 21 a les 04 UTC
Visibilitat: 3000 m
boirina

TAF: UKOO 201103Z 2012/2112 07003MPS CAVOK TEMPO 2020/2104 3000 BR

Observacions i pronòstics meteorològics de més de 4000 aeroports (METAR i TAF).

Les estacions disponibles són els punts grocs i vermells al mapa.

Posi el ratolí al punt desitjat per veure el nom de l'estació.

Feu clic per veure les observacions i els pronòstics meteorològics.

Per canviar el mapa: feu clic els botons verds amb una creu de color negre per apropar; al botó verd amb un guió per allunyar la imatge; o en les fletxes verdes per a mapes adjacents.


METAR-TAF: